createdAt,value
2017-12-09T00:00:29.641Z,3.30
2017-12-09T00:01:32.243Z,3.72
2017-12-09T00:02:34.729Z,3.83
2017-12-09T00:03:38.191Z,3.80
2017-12-09T00:04:40.691Z,3.78
2017-12-09T00:05:43.174Z,3.50
2017-12-09T00:06:45.637Z,3.40
2017-12-09T00:07:49.142Z,3.60
2017-12-09T00:08:51.708Z,3.80
2017-12-09T00:09:54.239Z,4.00
2017-12-09T00:10:56.697Z,3.33
2017-12-09T00:11:59.239Z,3.10
2017-12-09T00:13:01.696Z,3.50
2017-12-09T00:14:04.181Z,3.35
2017-12-09T00:15:07.433Z,3.30
2017-12-09T00:16:09.951Z,2.90
2017-12-09T00:17:12.467Z,3.03
2017-12-09T00:18:14.962Z,3.20
2017-12-09T00:19:17.425Z,2.83
2017-12-09T00:20:20.886Z,3.22
2017-12-09T00:21:23.375Z,2.80
2017-12-09T00:22:37.870Z,2.87
2017-12-09T00:23:41.293Z,2.08
2017-12-09T00:24:43.779Z,2.70
2017-12-09T00:25:46.285Z,2.85
2017-12-09T00:26:48.771Z,2.83
2017-12-09T00:27:51.249Z,3.70
2017-12-09T00:28:53.745Z,2.53
2017-12-09T00:29:57.002Z,2.55
2017-12-09T00:30:59.489Z,2.03
2017-12-09T00:32:02.766Z,2.55
2017-12-09T00:33:05.241Z,2.60
2017-12-09T00:34:08.492Z,2.95
2017-12-09T00:35:11.297Z,3.00
2017-12-09T00:36:14.560Z,2.58
2017-12-09T00:37:17.049Z,2.50
2017-12-09T00:38:20.285Z,2.60
2017-12-09T00:39:22.776Z,2.87
2017-12-09T00:40:25.628Z,3.00
2017-12-09T00:41:28.117Z,2.70
2017-12-09T00:42:30.611Z,3.37
2017-12-09T00:43:34.149Z,3.78
2017-12-09T00:44:36.634Z,2.60
2017-12-09T00:45:39.140Z,3.05
2017-12-09T00:46:41.600Z,2.83
2017-12-09T00:47:44.102Z,2.70
2017-12-09T00:48:46.568Z,2.72
2017-12-09T00:49:49.044Z,3.08
2017-12-09T00:50:51.525Z,2.47
2017-12-09T00:51:53.997Z,2.75
2017-12-09T00:52:56.511Z,3.20
2017-12-09T00:53:58.998Z,2.80
2017-12-09T00:55:01.476Z,2.70
2017-12-09T00:56:03.946Z,3.83
2017-12-09T00:57:06.708Z,3.62
2017-12-09T00:58:09.193Z,3.90
2017-12-09T00:59:12.973Z,3.30
2017-12-09T01:00:15.492Z,3.67
2017-12-09T01:01:17.952Z,3.15
2017-12-09T01:02:20.440Z,4.00
2017-12-09T01:03:24.881Z,3.75
2017-12-09T01:04:27.351Z,3.25
2017-12-09T01:05:30.604Z,4.20
2017-12-09T01:06:33.088Z,4.10
2017-12-09T01:07:35.798Z,3.67
2017-12-09T01:08:39.097Z,4.50
2017-12-09T01:09:41.844Z,3.97
2017-12-09T01:10:45.075Z,5.28
2017-12-09T01:11:47.585Z,4.40
2017-12-09T01:12:50.073Z,4.60
2017-12-09T01:13:52.550Z,5.00
2017-12-09T01:14:55.034Z,4.60
2017-12-09T01:16:10.462Z,5.07
2017-12-09T01:17:25.953Z,5.18
2017-12-09T01:18:41.384Z,4.47
2017-12-09T01:19:43.861Z,4.12
2017-12-09T01:20:47.099Z,5.20
2017-12-09T01:21:49.573Z,5.40
2017-12-09T01:22:52.074Z,5.30
2017-12-09T01:23:55.320Z,5.05
2017-12-09T01:24:57.805Z,4.75
2017-12-09T01:26:00.411Z,4.75
2017-12-09T01:27:03.840Z,5.25
2017-12-09T01:28:06.321Z,5.15
2017-12-09T01:29:08.786Z,5.55
2017-12-09T01:30:11.459Z,5.03
2017-12-09T01:31:13.935Z,4.95
2017-12-09T01:32:17.181Z,5.10
2017-12-09T01:33:19.653Z,5.53
2017-12-09T01:34:22.185Z,5.22
2017-12-09T01:35:25.410Z,5.03
2017-12-09T01:36:27.894Z,4.87
2017-12-09T01:37:31.136Z,4.05
2017-12-09T01:38:33.611Z,4.82
2017-12-09T01:39:36.078Z,4.45
2017-12-09T01:40:38.567Z,5.65
2017-12-09T01:41:41.268Z,5.03
2017-12-09T01:42:43.756Z,5.87
2017-12-09T01:43:46.223Z,4.75
2017-12-09T01:44:48.717Z,4.60
2017-12-09T01:45:51.192Z,5.05
2017-12-09T01:46:54.441Z,5.40
2017-12-09T01:47:56.916Z,4.80
2017-12-09T01:48:59.427Z,4.90
2017-12-09T01:50:02.030Z,4.70
2017-12-09T01:51:04.531Z,5.55
2017-12-09T01:52:07.277Z,4.50
2017-12-09T01:53:09.758Z,4.75
2017-12-09T01:54:12.248Z,5.20
2017-12-09T01:55:15.482Z,5.65
2017-12-09T01:56:18.979Z,4.93
2017-12-09T01:57:21.444Z,6.00
2017-12-09T01:58:23.922Z,4.93
2017-12-09T01:59:26.382Z,4.60
2017-12-09T02:00:28.853Z,5.60
2017-12-09T02:01:31.371Z,5.55
2017-12-09T02:02:33.841Z,5.12
2017-12-09T02:03:36.306Z,5.00
2017-12-09T02:04:38.798Z,5.32
2017-12-09T02:05:41.432Z,4.85
2017-12-09T02:06:43.993Z,5.32
2017-12-09T02:07:46.468Z,5.57
2017-12-09T02:08:48.947Z,4.57
2017-12-09T02:09:51.410Z,5.00
2017-12-09T02:10:54.101Z,5.00
2017-12-09T02:11:56.579Z,4.30
2017-12-09T02:12:59.071Z,5.32
2017-12-09T02:14:02.313Z,4.80
2017-12-09T02:15:04.836Z,5.80
2017-12-09T02:16:07.284Z,5.65
2017-12-09T02:17:11.576Z,4.40
2017-12-09T02:18:14.047Z,4.95
2017-12-09T02:19:19.675Z,4.75
2017-12-09T02:20:22.170Z,6.47
2017-12-09T02:21:24.661Z,4.70
2017-12-09T02:22:27.156Z,5.20
2017-12-09T02:23:29.652Z,5.07
2017-12-09T02:24:32.908Z,4.87
2017-12-09T02:25:35.385Z,5.62
2017-12-09T02:26:37.857Z,4.68
2017-12-09T02:27:41.109Z,4.82
2017-12-09T02:28:43.653Z,4.82
2017-12-09T02:29:46.117Z,5.87
2017-12-09T02:30:59.242Z,5.22
2017-12-09T02:32:01.717Z,4.80
2017-12-09T02:33:04.195Z,4.85
2017-12-09T02:34:06.676Z,5.10
2017-12-09T02:35:09.963Z,4.75
2017-12-09T02:36:13.202Z,4.28
2017-12-09T02:37:15.709Z,5.12
2017-12-09T02:38:18.186Z,5.03
2017-12-09T02:39:21.433Z,4.78
2017-12-09T02:40:26.905Z,4.62
2017-12-09T02:41:30.165Z,3.75
2017-12-09T02:42:34.229Z,6.07
2017-12-09T02:43:36.679Z,4.22
2017-12-09T02:44:39.168Z,4.12
2017-12-09T02:45:41.664Z,4.15
2017-12-09T02:46:44.173Z,3.65
2017-12-09T02:47:46.674Z,4.15
2017-12-09T02:48:49.138Z,4.62
2017-12-09T02:49:51.628Z,3.75
2017-12-09T02:50:57.565Z,4.15
2017-12-09T02:52:00.034Z,3.97
2017-12-09T02:53:02.530Z,3.70
2017-12-09T02:54:05.010Z,3.42
2017-12-09T02:55:07.494Z,3.45
2017-12-09T02:56:10.009Z,2.80
2017-12-09T02:57:13.270Z,3.30
2017-12-09T02:58:15.749Z,2.72
2017-12-09T02:59:18.240Z,3.70
2017-12-09T03:00:21.144Z,2.90
2017-12-09T03:01:23.605Z,3.40
2017-12-09T03:02:26.087Z,2.70
2017-12-09T03:03:28.639Z,3.37
2017-12-09T03:04:32.029Z,3.90
2017-12-09T03:05:34.499Z,2.83
2017-12-09T03:06:36.996Z,2.60
2017-12-09T03:07:39.467Z,3.33
2017-12-09T03:08:41.954Z,2.45
2017-12-09T03:09:44.447Z,3.03
2017-12-09T03:10:46.923Z,2.85
2017-12-09T03:11:49.397Z,3.40
2017-12-09T03:12:51.869Z,4.15
2017-12-09T03:13:54.368Z,3.65
2017-12-09T03:14:57.609Z,3.22
2017-12-09T03:16:00.064Z,3.20
2017-12-09T03:17:02.539Z,3.10
2017-12-09T03:18:05.004Z,2.80
2017-12-09T03:19:08.482Z,3.67
2017-12-09T03:20:11.024Z,3.50
2017-12-09T03:21:13.533Z,3.90
2017-12-09T03:22:16.002Z,4.22
2017-12-09T03:23:18.488Z,3.10
2017-12-09T03:24:20.983Z,3.30
2017-12-09T03:25:24.239Z,3.62
2017-12-09T03:26:26.709Z,3.17
2017-12-09T03:27:29.365Z,3.35
2017-12-09T03:28:31.844Z,2.80
2017-12-09T03:29:34.328Z,3.80
2017-12-09T03:30:37.608Z,3.95
2017-12-09T03:31:40.847Z,4.07
2017-12-09T03:32:43.309Z,3.83
2017-12-09T03:33:45.791Z,4.35
2017-12-09T03:34:48.287Z,4.07
2017-12-09T03:35:51.557Z,3.83
2017-12-09T03:36:54.030Z,4.03
2017-12-09T03:37:56.511Z,4.80
2017-12-09T03:38:59.773Z,4.37
2017-12-09T03:40:03.028Z,4.45
2017-12-09T03:41:05.524Z,4.65
2017-12-09T03:42:08.781Z,4.80
2017-12-09T03:43:11.264Z,4.93
2017-12-09T03:44:13.752Z,5.30
2017-12-09T03:45:16.993Z,5.43
2017-12-09T03:46:20.463Z,4.47
2017-12-09T03:47:22.932Z,5.15
2017-12-09T03:48:25.730Z,5.40
2017-12-09T03:49:28.184Z,5.40
2017-12-09T03:50:30.647Z,6.03
2017-12-09T03:51:33.144Z,5.90
2017-12-09T03:52:38.327Z,6.78
2017-12-09T03:53:40.810Z,6.00
2017-12-09T03:54:43.281Z,6.22
2017-12-09T03:55:45.754Z,6.22
2017-12-09T03:56:48.582Z,7.05
2017-12-09T03:57:51.064Z,7.05
2017-12-09T03:58:53.531Z,6.85
2017-12-09T03:59:56.009Z,6.65
2017-12-09T04:00:59.100Z,7.25
2017-12-09T04:02:01.584Z,7.40
2017-12-09T04:03:04.821Z,7.30
2017-12-09T04:04:07.365Z,7.10
2017-12-09T04:05:10.907Z,8.23
2017-12-09T04:06:13.392Z,8.20
2017-12-09T04:07:16.770Z,8.60
2017-12-09T04:08:20.021Z,8.45
2017-12-09T04:09:22.491Z,9.13
2017-12-09T04:10:25.001Z,7.53
2017-12-09T04:11:27.485Z,9.50
2017-12-09T04:12:29.981Z,9.40
2017-12-09T04:13:32.456Z,8.63
2017-12-09T04:14:34.956Z,9.70
2017-12-09T04:15:38.199Z,9.18
2017-12-09T04:16:40.667Z,8.95
2017-12-09T04:17:43.954Z,10.43
2017-12-09T04:18:46.436Z,8.57
2017-12-09T04:19:49.693Z,9.25
2017-12-09T04:20:52.182Z,8.55
2017-12-09T04:21:55.452Z,8.95
2017-12-09T04:22:57.921Z,9.55
2017-12-09T04:24:00.420Z,7.55
2017-12-09T04:25:02.926Z,8.07
2017-12-09T04:26:05.393Z,9.00
2017-12-09T04:27:07.895Z,8.93
2017-12-09T04:28:11.133Z,9.25
2017-12-09T04:29:13.612Z,7.45
2017-12-09T04:30:16.079Z,7.50
2017-12-09T04:31:18.599Z,7.65
2017-12-09T04:32:21.078Z,7.28
2017-12-09T04:33:23.549Z,7.05
2017-12-09T04:34:26.051Z,8.13
2017-12-09T04:35:29.518Z,7.05
2017-12-09T04:36:31.997Z,7.28
2017-12-09T04:37:34.477Z,6.07
2017-12-09T04:38:36.961Z,6.78
2017-12-09T04:39:40.187Z,6.18
2017-12-09T04:40:42.669Z,6.55
2017-12-09T04:41:46.139Z,6.05
2017-12-09T04:42:48.613Z,6.97
2017-12-09T04:43:51.084Z,6.15
2017-12-09T04:44:53.569Z,5.53
2017-12-09T04:45:56.040Z,6.30
2017-12-09T04:46:58.528Z,5.90
2017-12-09T04:48:01.026Z,5.72
2017-12-09T04:49:03.603Z,5.40
2017-12-09T04:50:06.076Z,5.37
2017-12-09T04:51:08.548Z,4.40
2017-12-09T04:52:11.008Z,5.72
2017-12-09T04:53:13.510Z,5.12
2017-12-09T04:54:16.774Z,4.65
2017-12-09T04:55:19.343Z,4.15
2017-12-09T04:56:22.826Z,4.75
2017-12-09T04:57:25.312Z,4.20
2017-12-09T04:58:28.557Z,5.05
2017-12-09T04:59:31.172Z,4.20
2017-12-09T05:00:33.634Z,5.28
2017-12-09T05:01:36.128Z,4.70
2017-12-09T05:02:38.611Z,4.00
2017-12-09T05:03:41.087Z,4.97
2017-12-09T05:04:43.540Z,4.70
2017-12-09T05:05:46.009Z,4.47
2017-12-09T05:06:48.473Z,5.00
2017-12-09T05:07:50.968Z,4.25
2017-12-09T05:08:54.217Z,3.80
2017-12-09T05:09:56.685Z,4.18
2017-12-09T05:10:59.154Z,4.65
2017-12-09T05:12:01.633Z,4.65
2017-12-09T05:13:04.174Z,4.32
2017-12-09T05:14:06.647Z,4.78
2017-12-09T05:15:09.407Z,3.60
2017-12-09T05:16:11.903Z,3.65
2017-12-09T05:17:14.382Z,3.78
2017-12-09T05:18:17.620Z,5.25
2017-12-09T05:19:20.112Z,4.00
2017-12-09T05:20:23.346Z,3.70
2017-12-09T05:21:26.053Z,4.22
2017-12-09T05:22:28.507Z,3.58
2017-12-09T05:23:30.988Z,4.18
2017-12-09T05:24:34.254Z,4.07
2017-12-09T05:25:36.728Z,3.08
2017-12-09T05:26:39.192Z,3.72
2017-12-09T05:27:41.652Z,3.78
2017-12-09T05:28:44.131Z,4.10
2017-12-09T05:29:46.781Z,3.62
2017-12-09T05:30:49.253Z,5.70
2017-12-09T05:31:51.743Z,3.62
2017-12-09T05:32:54.207Z,3.20
2017-12-09T05:33:56.678Z,3.05
2017-12-09T05:34:59.191Z,3.20
2017-12-09T05:36:01.666Z,2.95
2017-12-09T05:37:04.254Z,3.40
2017-12-09T05:38:06.719Z,3.45
2017-12-09T05:39:09.193Z,3.15
2017-12-09T05:40:11.676Z,3.00
2017-12-09T05:41:14.188Z,4.55
2017-12-09T05:42:16.668Z,3.30
2017-12-09T05:43:19.151Z,3.30
2017-12-09T05:44:21.623Z,3.22
2017-12-09T05:45:24.097Z,3.35
2017-12-09T05:46:27.668Z,3.78
2017-12-09T05:47:30.146Z,3.33
2017-12-09T05:48:32.642Z,3.00
2017-12-09T05:49:35.199Z,3.15
2017-12-09T05:50:37.671Z,3.70
2017-12-09T05:51:40.150Z,3.33
2017-12-09T05:52:42.889Z,3.83
2017-12-09T05:53:46.124Z,3.60
2017-12-09T05:54:48.611Z,3.87
2017-12-09T05:55:51.098Z,4.28
2017-12-09T05:56:53.623Z,3.60
2017-12-09T05:57:56.105Z,3.80
2017-12-09T05:58:58.597Z,3.90
2017-12-09T06:00:01.070Z,4.70
2017-12-09T06:01:04.389Z,4.15
2017-12-09T06:02:06.888Z,5.55
2017-12-09T06:03:09.431Z,5.25
2017-12-09T06:04:11.927Z,3.85
2017-12-09T06:05:14.390Z,3.60
2017-12-09T06:06:16.863Z,3.83
2017-12-09T06:07:19.350Z,4.85
2017-12-09T06:08:22.624Z,4.30
2017-12-09T06:09:25.100Z,4.40
2017-12-09T06:10:28.337Z,4.15
2017-12-09T06:11:30.817Z,4.97
2017-12-09T06:12:33.296Z,4.35
2017-12-09T06:13:35.812Z,4.60
2017-12-09T06:14:38.301Z,4.90
2017-12-09T06:15:40.798Z,4.55
2017-12-09T06:16:43.259Z,5.18
2017-12-09T06:17:45.733Z,4.75
2017-12-09T06:18:48.245Z,4.30
2017-12-09T06:19:50.745Z,5.00
2017-12-09T06:20:53.232Z,4.25
2017-12-09T06:21:56.712Z,5.47
2017-12-09T06:22:59.187Z,4.85
2017-12-09T06:24:02.572Z,4.80
2017-12-09T06:25:05.872Z,5.10
2017-12-09T06:26:08.484Z,5.30
2017-12-09T06:27:11.032Z,4.90
2017-12-09T06:28:13.520Z,5.75
2017-12-09T06:29:16.009Z,6.35
2017-12-09T06:30:18.473Z,5.05
2017-12-09T06:31:21.731Z,5.85
2017-12-09T06:32:24.217Z,5.53
2017-12-09T06:33:26.728Z,5.40
2017-12-09T06:34:29.217Z,5.37
2017-12-09T06:35:31.717Z,6.95
2017-12-09T06:36:34.205Z,6.00
2017-12-09T06:37:37.456Z,5.50
2017-12-09T06:38:39.977Z,5.80
2017-12-09T06:39:42.508Z,5.00
2017-12-09T06:40:44.984Z,7.07
2017-12-09T06:41:48.260Z,6.10
2017-12-09T06:42:51.508Z,5.60
2017-12-09T06:43:53.973Z,5.60
2017-12-09T06:44:56.455Z,6.65
2017-12-09T06:45:59.114Z,5.53
2017-12-09T06:47:01.590Z,6.43
2017-12-09T06:48:04.070Z,7.07
2017-12-09T06:49:07.441Z,6.05
2017-12-09T06:50:09.925Z,6.45
2017-12-09T06:51:13.260Z,7.22
2017-12-09T06:52:15.744Z,6.35
2017-12-09T06:53:18.224Z,6.35
2017-12-09T06:54:20.714Z,6.55
2017-12-09T06:55:23.975Z,7.10
2017-12-09T06:56:27.248Z,7.30
2017-12-09T06:57:29.724Z,6.20
2017-12-09T06:58:32.256Z,7.00
2017-12-09T06:59:34.902Z,6.15
2017-12-09T07:00:37.375Z,6.68
2017-12-09T07:01:41.995Z,7.35
2017-12-09T07:02:44.552Z,7.75
2017-12-09T07:03:47.039Z,6.80
2017-12-09T07:04:49.522Z,8.18
2017-12-09T07:05:52.013Z,7.95
2017-12-09T07:06:55.272Z,8.60
2017-12-09T07:07:58.221Z,7.20
2017-12-09T07:09:00.708Z,6.62
2017-12-09T07:10:03.193Z,7.40
2017-12-09T07:11:06.462Z,7.53
2017-12-09T07:12:08.985Z,7.45
2017-12-09T07:13:11.725Z,7.30
2017-12-09T07:14:14.989Z,8.30
2017-12-09T07:15:18.246Z,7.85
2017-12-09T07:16:20.719Z,6.93
2017-12-09T07:17:23.218Z,6.50
2017-12-09T07:18:26.482Z,7.82
2017-12-09T07:19:28.957Z,7.43
2017-12-09T07:20:32.199Z,7.00
2017-12-09T07:21:34.698Z,7.05
2017-12-09T07:22:37.195Z,7.25
2017-12-09T07:23:39.680Z,7.18
2017-12-09T07:24:42.255Z,8.00
2017-12-09T07:25:44.724Z,7.43
2017-12-09T07:26:47.200Z,8.60
2017-12-09T07:27:49.693Z,8.75
2017-12-09T07:28:52.994Z,7.72
2017-12-09T07:29:56.258Z,8.30
2017-12-09T07:30:59.577Z,7.75
2017-12-09T07:32:02.075Z,7.30
2017-12-09T07:33:04.575Z,7.10
2017-12-09T07:34:07.858Z,7.65
2017-12-09T07:35:11.599Z,7.43
2017-12-09T07:36:14.161Z,8.10
2017-12-09T07:37:16.827Z,7.28
2017-12-09T07:38:19.304Z,7.60
2017-12-09T07:39:24.952Z,8.43
2017-12-09T07:40:27.478Z,7.57
2017-12-09T07:41:30.729Z,7.90
2017-12-09T07:42:33.209Z,7.47
2017-12-09T07:43:36.871Z,8.43
2017-12-09T07:44:39.382Z,8.55
2017-12-09T07:45:42.623Z,9.27
2017-12-09T07:46:45.099Z,8.52
2017-12-09T07:47:48.590Z,7.60
2017-12-09T07:48:51.879Z,8.23
2017-12-09T07:49:55.155Z,7.28
2017-12-09T07:50:57.649Z,7.57
2017-12-09T07:52:00.916Z,9.48
2017-12-09T07:53:03.388Z,8.00
2017-12-09T07:54:06.635Z,8.68
2017-12-09T07:55:09.145Z,7.60
2017-12-09T07:56:12.747Z,8.07
2017-12-09T07:57:15.989Z,6.97
2017-12-09T07:58:18.496Z,7.10
2017-12-09T07:59:21.788Z,6.97
2017-12-09T08:00:24.420Z,7.40
2017-12-09T08:01:26.884Z,8.27
2017-12-09T08:02:32.809Z,7.00
2017-12-09T08:03:35.293Z,7.32
2017-12-09T08:04:37.781Z,7.47
2017-12-09T08:05:41.037Z,8.98
2017-12-09T08:06:43.549Z,6.95
2017-12-09T08:07:46.059Z,6.80
2017-12-09T08:08:48.625Z,6.62
2017-12-09T08:09:51.112Z,7.50
2017-12-09T08:10:54.680Z,6.75
2017-12-09T08:11:57.195Z,8.15
2017-12-09T08:12:59.752Z,7.82
2017-12-09T08:14:03.030Z,9.60
2017-12-09T08:15:07.299Z,7.37
2017-12-09T08:16:10.036Z,8.38
2017-12-09T08:17:12.828Z,8.45
2017-12-09T08:18:15.344Z,8.75
2017-12-09T08:19:18.580Z,8.45
2017-12-09T08:20:21.085Z,8.93
2017-12-09T08:21:23.582Z,8.52
2017-12-09T08:22:27.774Z,8.20
2017-12-09T08:23:31.012Z,8.45
2017-12-09T08:24:33.549Z,9.27
2017-12-09T08:25:36.016Z,8.25
2017-12-09T08:26:38.538Z,7.95
2017-12-09T08:27:41.641Z,9.05
2017-12-09T08:28:44.745Z,8.85
2017-12-09T08:29:47.405Z,8.27
2017-12-09T08:30:49.871Z,9.85
2017-12-09T08:31:52.353Z,7.28
2017-12-09T08:32:55.871Z,9.60
2017-12-09T08:33:58.842Z,10.10
2017-12-09T08:35:01.347Z,9.27
2017-12-09T08:36:03.824Z,8.98
2017-12-09T08:37:06.315Z,9.05
2017-12-09T08:38:08.800Z,8.85
2017-12-09T08:39:11.416Z,10.25
2017-12-09T08:40:13.923Z,9.50
2017-12-09T08:41:16.420Z,9.25
2017-12-09T08:42:19.676Z,9.68
2017-12-09T08:43:22.187Z,10.48
2017-12-09T08:44:24.860Z,9.57
2017-12-09T08:45:27.352Z,9.60
2017-12-09T08:46:30.061Z,9.70
2017-12-09T08:47:32.544Z,9.10
2017-12-09T08:48:35.814Z,10.05
2017-12-09T08:49:39.234Z,12.05
2017-12-09T08:50:41.747Z,10.02
2017-12-09T08:51:44.272Z,10.30
2017-12-09T08:52:46.839Z,9.60
2017-12-09T08:53:49.345Z,10.23
2017-12-09T08:54:51.867Z,10.90
2017-12-09T08:55:54.394Z,9.88
2017-12-09T08:56:57.198Z,9.23
2017-12-09T08:57:59.817Z,10.00
2017-12-09T08:59:03.125Z,9.55
2017-12-09T09:00:06.359Z,9.82
2017-12-09T09:01:08.854Z,9.88
2017-12-09T09:02:12.204Z,10.48
2017-12-09T09:03:14.815Z,10.13
2017-12-09T09:04:17.359Z,9.60
2017-12-09T09:05:19.918Z,9.52
2017-12-09T09:06:22.429Z,8.80
2017-12-09T09:07:25.982Z,9.48
2017-12-09T09:08:28.825Z,8.93
2017-12-09T09:09:31.359Z,8.80
2017-12-09T09:10:34.648Z,8.45
2017-12-09T09:11:37.910Z,8.93
2017-12-09T09:12:40.445Z,8.80
2017-12-09T09:13:43.896Z,8.45
2017-12-09T09:14:46.443Z,8.57
2017-12-09T09:15:49.896Z,8.20
2017-12-09T09:16:52.377Z,9.02
2017-12-09T09:17:54.862Z,9.65
2017-12-09T09:18:58.126Z,9.25
2017-12-09T09:20:01.450Z,8.82
2017-12-09T09:21:03.957Z,8.77
2017-12-09T09:22:06.429Z,9.98
2017-12-09T09:23:09.067Z,8.20
2017-12-09T09:24:12.298Z,8.57
2017-12-09T09:25:15.692Z,9.38
2017-12-09T09:26:18.227Z,9.18
2017-12-09T09:27:20.742Z,8.48
2017-12-09T09:28:23.242Z,8.20
2017-12-09T09:29:25.725Z,9.20
2017-12-09T09:30:28.238Z,9.20
2017-12-09T09:31:31.558Z,9.57
2017-12-09T09:32:34.118Z,9.32
2017-12-09T09:33:38.073Z,9.00
2017-12-09T09:34:40.561Z,8.77
2017-12-09T09:35:43.049Z,8.05
2017-12-09T09:36:45.533Z,7.07
2017-12-09T09:37:49.042Z,7.45
2017-12-09T09:38:51.565Z,8.40
2017-12-09T09:39:54.200Z,8.10
2017-12-09T09:40:57.488Z,8.43
2017-12-09T09:42:00.772Z,9.50
2017-12-09T09:43:04.052Z,9.27
2017-12-09T09:44:07.389Z,8.82
2017-12-09T09:45:10.084Z,8.18
2017-12-09T09:46:12.978Z,8.63
2017-12-09T09:47:16.233Z,10.32
2017-12-09T09:48:18.994Z,9.38
2017-12-09T09:49:21.480Z,8.60
2017-12-09T09:50:26.694Z,8.55
2017-12-09T09:51:29.179Z,9.57
2017-12-09T09:52:33.733Z,9.20
2017-12-09T09:53:36.239Z,10.05
2017-12-09T09:54:38.735Z,8.82
2017-12-09T09:55:41.991Z,9.23
2017-12-09T09:56:44.461Z,7.70
2017-12-09T09:57:46.982Z,8.32
2017-12-09T09:58:50.299Z,8.48
2017-12-09T09:59:52.772Z,8.32
2017-12-09T10:00:55.269Z,8.60
2017-12-09T10:01:58.521Z,7.87
2017-12-09T10:03:01.036Z,8.00
2017-12-09T10:04:03.550Z,7.75
2017-12-09T10:05:06.049Z,7.47
2017-12-09T10:06:09.278Z,7.55
2017-12-09T10:07:12.384Z,6.70
2017-12-09T10:08:14.898Z,7.32
2017-12-09T10:09:17.379Z,7.60
2017-12-09T10:10:19.902Z,8.02
2017-12-09T10:11:23.143Z,7.78
2017-12-09T10:12:25.645Z,7.75
2017-12-09T10:13:30.204Z,8.38
2017-12-09T10:14:32.711Z,7.80
2017-12-09T10:15:36.393Z,7.95
2017-12-09T10:16:38.873Z,7.35
2017-12-09T10:17:42.229Z,6.65
2017-12-09T10:18:44.714Z,6.40
2017-12-09T10:19:47.429Z,7.00
2017-12-09T10:20:50.005Z,6.45
2017-12-09T10:21:52.706Z,7.07
2017-12-09T10:22:55.176Z,6.90
2017-12-09T10:23:57.872Z,6.15
2017-12-09T10:25:01.130Z,6.40
2017-12-09T10:26:03.681Z,6.85
2017-12-09T10:27:06.183Z,6.35
2017-12-09T10:28:09.757Z,6.15
2017-12-09T10:29:13.271Z,5.93
2017-12-09T10:30:16.836Z,5.53
2017-12-09T10:31:19.265Z,6.10
2017-12-09T10:32:21.758Z,4.70
2017-12-09T10:33:24.355Z,5.28
2017-12-09T10:34:27.641Z,5.72
2017-12-09T10:35:30.923Z,5.20
2017-12-09T10:36:34.263Z,4.95
2017-12-09T10:37:36.751Z,5.22
2017-12-09T10:38:39.235Z,5.20
2017-12-09T10:39:42.548Z,5.25
2017-12-09T10:40:45.066Z,4.87
2017-12-09T10:41:47.548Z,5.25
2017-12-09T10:42:50.786Z,5.18
2017-12-09T10:43:53.328Z,4.97
2017-12-09T10:44:55.848Z,4.72
2017-12-09T10:45:58.436Z,4.85
2017-12-09T10:47:01.737Z,4.60
2017-12-09T10:48:04.264Z,3.90
2017-12-09T10:49:06.758Z,4.65
2017-12-09T10:50:10.462Z,4.12
2017-12-09T10:51:13.059Z,4.75
2017-12-09T10:52:15.576Z,4.20
2017-12-09T10:53:18.847Z,4.50
2017-12-09T10:54:21.343Z,5.18
2017-12-09T10:55:23.853Z,4.57
2017-12-09T10:56:26.363Z,4.00
2017-12-09T10:57:29.627Z,4.85
2017-12-09T10:58:32.886Z,4.47
2017-12-09T10:59:35.365Z,4.53
2017-12-09T11:00:37.853Z,4.70
2017-12-09T11:01:40.398Z,4.82
2017-12-09T11:02:43.861Z,5.80
2017-12-09T11:03:47.175Z,4.47
2017-12-09T11:04:49.693Z,4.55
2017-12-09T11:05:52.227Z,4.87
2017-12-09T11:06:55.505Z,4.70
2017-12-09T11:07:58.758Z,4.90
2017-12-09T11:09:01.255Z,4.12
2017-12-09T11:10:04.521Z,4.62
2017-12-09T11:11:07.079Z,5.45
2017-12-09T11:12:09.593Z,4.60
2017-12-09T11:13:12.265Z,4.37
2017-12-09T11:14:14.812Z,4.62
2017-12-09T11:15:17.316Z,4.80
2017-12-09T11:16:19.828Z,4.90
2017-12-09T11:17:22.305Z,4.95
2017-12-09T11:18:25.545Z,3.97
2017-12-09T11:19:28.045Z,5.10
2017-12-09T11:20:30.540Z,4.53
2017-12-09T11:21:33.070Z,4.80
2017-12-09T11:22:35.571Z,4.03
2017-12-09T11:23:38.048Z,4.30
2017-12-09T11:24:40.598Z,4.72
2017-12-09T11:25:43.170Z,5.05
2017-12-09T11:26:45.812Z,5.07
2017-12-09T11:27:49.100Z,5.62
2017-12-09T11:28:53.382Z,5.30
2017-12-09T11:29:55.878Z,5.65
2017-12-09T11:30:59.341Z,3.90
2017-12-09T11:32:03.361Z,4.20
2017-12-09T11:33:06.612Z,4.00
2017-12-09T11:34:09.121Z,4.20
2017-12-09T11:35:12.705Z,4.35
2017-12-09T11:36:16.286Z,4.47
2017-12-09T11:37:20.704Z,3.95
2017-12-09T11:38:23.808Z,4.00
2017-12-09T11:39:28.122Z,3.45
2017-12-09T11:40:30.965Z,4.20
2017-12-09T11:41:35.109Z,4.20
2017-12-09T11:42:37.741Z,3.85
2017-12-09T11:43:41.112Z,3.70
2017-12-09T11:44:43.800Z,4.43
2017-12-09T11:45:47.616Z,3.53
2017-12-09T11:46:50.289Z,3.10
2017-12-09T11:47:54.592Z,4.18
2017-12-09T11:48:58.488Z,3.12
2017-12-09T11:50:01.403Z,4.00
2017-12-09T11:51:04.801Z,3.37
2017-12-09T11:52:07.809Z,3.45
2017-12-09T11:53:10.404Z,3.80
2017-12-09T11:54:14.248Z,3.58
2017-12-09T11:55:16.918Z,3.67
2017-12-09T11:56:19.513Z,3.22
2017-12-09T11:57:22.784Z,3.60
2017-12-09T11:58:26.352Z,4.20
2017-12-09T11:59:29.758Z,3.15
2017-12-09T12:00:33.554Z,3.65
2017-12-09T12:01:36.914Z,4.03
2017-12-09T12:02:40.473Z,3.58
2017-12-09T12:03:43.609Z,3.55
2017-12-09T12:04:46.238Z,4.30
2017-12-09T12:05:49.568Z,4.20
2017-12-09T12:06:52.919Z,4.30
2017-12-09T12:07:55.577Z,3.97
2017-12-09T12:08:58.148Z,3.90
2017-12-09T12:10:00.781Z,4.12
2017-12-09T12:11:03.499Z,3.70
2017-12-09T12:12:06.355Z,4.47
2017-12-09T12:13:10.184Z,4.20
2017-12-09T12:14:13.991Z,4.43
2017-12-09T12:15:17.613Z,4.75
2017-12-09T12:16:20.234Z,4.37
2017-12-09T12:17:23.862Z,5.65
2017-12-09T12:18:26.391Z,5.65
2017-12-09T12:19:28.923Z,5.65
2017-12-09T12:20:31.498Z,5.80
2017-12-09T12:21:34.073Z,5.70
2017-12-09T12:22:36.659Z,5.62
2017-12-09T12:23:41.244Z,5.80
2017-12-09T12:24:43.812Z,6.35
2017-12-09T12:25:46.481Z,6.30
2017-12-09T12:26:49.020Z,7.12
2017-12-09T12:27:51.924Z,6.78
2017-12-09T12:28:55.293Z,7.75
2017-12-09T12:29:57.893Z,8.05
2017-12-09T12:31:00.459Z,7.80
2017-12-09T12:32:05.050Z,6.80
2017-12-09T12:33:09.131Z,7.30
2017-12-09T12:34:12.033Z,8.02
2017-12-09T12:35:15.451Z,7.57
2017-12-09T12:36:20.659Z,7.57
2017-12-09T12:37:26.561Z,7.95
2017-12-09T12:38:31.129Z,7.68
2017-12-09T12:39:33.756Z,8.27
2017-12-09T12:40:38.684Z,7.90
2017-12-09T12:41:41.406Z,8.35
2017-12-09T12:42:43.975Z,8.88
2017-12-09T12:43:46.576Z,9.77
2017-12-09T12:44:50.904Z,9.48
2017-12-09T12:45:53.590Z,8.18
2017-12-09T12:46:56.272Z,9.27
2017-12-09T12:48:00.074Z,9.68
2017-12-09T12:49:03.427Z,9.63
2017-12-09T12:50:05.995Z,9.90
2017-12-09T12:51:08.634Z,10.10
2017-12-09T12:52:12.541Z,10.15
2017-12-09T12:53:15.335Z,9.50
2017-12-09T12:54:18.600Z,10.60
2017-12-09T12:55:21.655Z,10.07
2017-12-09T12:56:26.325Z,9.52
2017-12-09T12:57:29.068Z,10.30
2017-12-09T12:58:31.832Z,10.05
2017-12-09T12:59:34.456Z,10.30
2017-12-09T13:00:38.054Z,10.73
2017-12-09T13:01:40.774Z,10.32
2017-12-09T13:02:43.480Z,9.55
2017-12-09T13:03:47.224Z,10.15
2017-12-09T13:04:49.818Z,9.70
2017-12-09T13:05:53.734Z,9.00
2017-12-09T13:06:56.727Z,9.45
2017-12-09T13:08:00.493Z,11.23
2017-12-09T13:09:03.554Z,9.50
2017-12-09T13:10:08.192Z,10.98
2017-12-09T13:11:11.877Z,10.05
2017-12-09T13:12:15.564Z,9.52
2017-12-09T13:13:18.125Z,10.05
2017-12-09T13:14:20.642Z,12.37
2017-12-09T13:15:23.170Z,11.40
2017-12-09T13:16:25.675Z,12.02
2017-12-09T13:17:28.210Z,11.85
2017-12-09T13:18:32.705Z,10.98
2017-12-09T13:19:35.211Z,11.50
2017-12-09T13:20:41.644Z,10.02
2017-12-09T13:21:44.250Z,9.45
2017-12-09T13:22:50.949Z,9.48
2017-12-09T13:23:53.476Z,9.32
2017-12-09T13:24:56.148Z,10.55
2017-12-09T13:25:59.492Z,9.55
2017-12-09T13:27:02.013Z,9.23
2017-12-09T13:28:24.051Z,9.65
2017-12-09T13:29:26.642Z,8.90
2017-12-09T13:30:29.157Z,9.75
2017-12-09T13:31:32.524Z,9.60
2017-12-09T13:32:49.233Z,9.00
2017-12-09T13:33:52.605Z,9.30
2017-12-09T13:39:23.343Z,8.13
2017-12-09T13:40:25.837Z,7.55
2017-12-09T13:41:28.368Z,8.60
2017-12-09T13:42:30.892Z,8.52
2017-12-09T13:43:34.191Z,8.85
2017-12-09T13:44:36.736Z,9.05
2017-12-09T13:45:40.202Z,8.70
2017-12-09T13:46:42.710Z,8.25
2017-12-09T13:47:45.257Z,7.80
2017-12-09T13:48:48.536Z,7.85
2017-12-09T13:49:51.816Z,7.60
2017-12-09T13:50:54.338Z,8.00
2017-12-09T13:51:56.878Z,8.70
2017-12-09T13:52:59.378Z,7.70
2017-12-09T13:54:01.864Z,7.93
2017-12-09T13:55:04.388Z,7.12
2017-12-09T13:56:06.899Z,7.78
2017-12-09T13:57:09.570Z,7.65
2017-12-09T13:58:13.111Z,6.53
2017-12-09T13:59:15.654Z,7.85
2017-12-09T14:00:24.737Z,7.90
2017-12-09T14:01:27.275Z,7.07